Time;durP1;ratioP1;P1;durP2;ratioP2;P2;SDS_P1;SDS_P2;PMS_P1;PMS_P2;Temp;Humidity;BMP_temperature;BMP_pressure;BME280_temperature;BME280_humidity;BME280_pressure;Samples;Min_cycle;Max_cycle;Signal;HPM_P1;HPM_P2
2021/08/05 00:00:16;;;;;;;;;;;;;;;18.60;80.21;99398.56;1685008;84;20188;-63
2021/08/05 00:02:42;;;;;;;;;;;;;;;18.60;80.16;99400.54;1685427;84;20181;-63
2021/08/05 00:05:10;;;;;;;;;;;;;;;18.60;80.15;99400.54;1706995;84;20202;-62
2021/08/05 00:07:37;;;;;;;;;;;;;;;18.58;80.14;99398.09;1682873;85;20201;-63
2021/08/05 00:10:04;;;;;;;;;;;;;;;18.55;80.18;99387.74;1683243;84;20175;-63
2021/08/05 00:12:30;;;;;;;;;;;;;;;18.56;80.13;99394.06;1687261;84;20137;-63
2021/08/05 00:14:57;;;;;;;;;;;;;;;18.55;80.05;99393.82;1704555;84;20442;-63
2021/08/05 00:17:23;;;;;;;;;;;;;;;18.52;80.05;99387.60;1687699;84;20143;-63
2021/08/05 00:19:49;;;;;;;;;;;;;;;18.46;80.18;99379.26;1698701;84;20172;-63
2021/08/05 00:22:15;;;;;;;;;;;;;;;18.37;80.40;99382.05;1692577;84;20444;-63
2021/08/05 00:24:42;;;;;;;;;;;;;;;18.32;80.49;99384.41;1684659;84;20171;-63
2021/08/05 00:27:08;;;;;;;;;;;;;;;18.33;80.39;99378.33;1696691;84;20470;-63
2021/08/05 00:29:34;;;;;;;;;;;;;;;18.33;80.34;99377.77;1711029;84;20156;-65
2021/08/05 00:32:00;;;;;;;;;;;;;;;18.33;80.34;99378.33;1702904;84;20155;-65
2021/08/05 00:34:27;;;;;;;;;;;;;;;18.31;80.32;99376.48;1685051;84;20136;-65
2021/08/05 00:36:53;;;;;;;;;;;;;;;18.29;80.33;99370.48;1709596;84;20137;-66
2021/08/05 00:39:20;;;;;;;;;;;;;;;18.26;80.39;99369.77;1710978;84;20431;-65
2021/08/05 00:41:46;;;;;;;;;;;;;;;18.23;80.46;99361.61;1689977;84;20124;-66
2021/08/05 00:44:13;;;;;;;;;;;;;;;18.21;80.46;99362.49;1710645;84;20193;-65
2021/08/05 00:46:40;;;;;;;;;;;;;;;18.19;80.48;99367.54;1697186;84;20136;-65
2021/08/05 00:49:06;;;;;;;;;;;;;;;18.18;80.56;99366.48;1682047;85;20429;-65
2021/08/05 00:51:33;;;;;;;;;;;;;;;18.17;80.61;99365.70;1690713;84;20408;-65
2021/08/05 00:53:59;;;;;;;;;;;;;;;18.16;80.59;99360.50;1701096;84;20139;-65
2021/08/05 00:56:26;;;;;;;;;;;;;;;18.09;80.77;99365.72;1686765;84;20599;-65
2021/08/05 00:58:55;;;;;;;;;;;;;;;18.03;80.89;99365.08;1688573;84;20179;-65
2021/08/05 01:01:23;;;;;;;;;;;;;;;18.03;80.85;99358.19;1711136;84;20121;-65
2021/08/05 01:03:52;;;;;;;;;;;;;;;18.03;80.82;99361.54;1696133;84;20135;-65
2021/08/05 01:06:34;;;;;;;;;;;;;;;18.00;80.88;99360.23;1699674;84;20470;-66
2021/08/05 01:09:17;;;;;;;;;;;;;;;18.00;80.92;99364.92;1688549;84;20482;-65
2021/08/05 01:11:45;;;;;;;;;;;;;;;17.95;81.02;99365.94;1682872;84;20168;-65
2021/08/05 01:14:13;;;;;;;;;;;;;;;17.92;81.14;99361.66;1671432;84;20501;-66
2021/08/05 01:16:41;;;;;;;;;;;;;;;17.88;81.28;99362.88;1709487;82;20124;-65
2021/08/05 01:19:27;;;;;;;;;;;;;;;17.85;81.41;99363.55;1691790;84;20131;-65
2021/08/05 01:21:57;;;;;;;;;;;;;;;17.83;81.58;99364.42;1705730;84;20133;-65
2021/08/05 01:24:24;;;;;;;;;;;;;;;17.79;81.69;99360.14;1707873;84;20125;-65
2021/08/05 01:26:53;;;;;;;;;;;;;;;17.77;81.83;99365.17;1710442;84;20137;-65
2021/08/05 01:29:19;;;;;;;;;;;;;;;17.79;81.99;99368.40;1704156;84;20121;-64
2021/08/05 01:31:46;;;;;;;;;;;;;;;17.79;82.10;99362.89;1710273;84;20165;-65
2021/08/05 01:34:13;;;;;;;;;;;;;;;17.81;82.17;99363.39;1699877;84;20153;-65
2021/08/05 01:36:44;;;;;;;;;;;;;;;17.84;82.11;99357.79;1693249;84;20470;-65
2021/08/05 01:39:10;;;;;;;;;;;;;;;17.87;82.09;99357.12;1697637;84;20152;-65
2021/08/05 01:41:36;;;;;;;;;;;;;;;17.88;81.92;99352.68;1682654;84;20127;-65
2021/08/05 01:44:05;;;;;;;;;;;;;;;17.91;81.77;99358.09;1678279;84;20395;-65
2021/08/05 01:46:32;;;;;;;;;;;;;;;17.84;81.84;99349.53;1677239;86;20131;-65
2021/08/05 01:48:59;;;;;;;;;;;;;;;17.81;81.89;99355.13;1690517;82;20135;-65
2021/08/05 01:51:25;;;;;;;;;;;;;;;17.84;81.72;99349.53;1689226;84;20140;-65
2021/08/05 01:53:52;;;;;;;;;;;;;;;17.83;81.51;99345.15;1684434;84;20127;-65
2021/08/05 01:56:22;;;;;;;;;;;;;;;17.84;81.59;99346.77;1682263;85;20166;-65
2021/08/05 01:58:49;;;;;;;;;;;;;;;17.84;81.65;99340.70;1682223;84;20540;-65
2021/08/05 02:01:17;;;;;;;;;;;;;;;17.85;81.54;99349.18;1685643;84;20139;-65
2021/08/05 02:03:53;;;;;;;;;;;;;;;17.84;81.45;99342.08;1690631;84;20132;-65
2021/08/05 02:06:21;;;;;;;;;;;;;;;17.83;81.38;99339.64;1710973;84;20447;-65
2021/08/05 02:09:04;;;;;;;;;;;;;;;17.75;81.54;99343.22;1687745;84;20163;-65
2021/08/05 02:11:34;;;;;;;;;;;;;;;17.72;81.57;99343.31;1633905;85;20127;-65
2021/08/05 02:14:03;;;;;;;;;;;;;;;17.69;81.35;99337.09;1682852;84;20425;-65
2021/08/05 02:16:29;;;;;;;;;;;;;;;17.68;81.25;99341.54;1711150;84;20144;-65
2021/08/05 02:18:56;;;;;;;;;;;;;;;17.66;81.26;99341.89;1690447;84;20131;-65
2021/08/05 02:21:25;;;;;;;;;;;;;;;17.64;81.25;99340.02;1694080;84;20474;-65
2021/08/05 02:23:53;;;;;;;;;;;;;;;17.64;81.33;99341.39;1710279;84;20133;-65
2021/08/05 02:26:19;;;;;;;;;;;;;;;17.64;81.36;99341.39;1706919;84;20922;-64
2021/08/05 02:28:47;;;;;;;;;;;;;;;17.64;81.44;99337.26;1682761;84;20136;-64
2021/08/05 02:31:13;;;;;;;;;;;;;;;17.66;81.51;99341.08;1682870;85;20147;-65
2021/08/05 02:33:40;;;;;;;;;;;;;;;17.63;81.41;99332.91;1704356;84;20140;-65
2021/08/05 02:36:06;;;;;;;;;;;;;;;17.52;81.41;99332.17;1711062;84;20259;-65
2021/08/05 02:38:32;;;;;;;;;;;;;;;17.47;81.70;99335.08;1709899;84;20168;-64
2021/08/05 02:40:58;;;;;;;;;;;;;;;17.45;81.39;99340.12;1699544;84;20198;-64
2021/08/05 02:43:26;;;;;;;;;;;;;;;17.38;81.32;99338.67;1694244;84;20183;-64
2021/08/05 02:45:52;;;;;;;;;;;;;;;17.33;81.42;99340.77;1698530;84;20449;-64
2021/08/05 02:48:19;;;;;;;;;;;;;;;17.32;81.74;99338.58;1692848;84;20146;-65
2021/08/05 02:50:46;;;;;;;;;;;;;;;17.35;81.79;99333.02;1710851;83;20124;-65
2021/08/05 02:53:12;;;;;;;;;;;;;;;17.38;81.99;99329.61;1725926;83;20489;-64
2021/08/05 02:55:38;;;;;;;;;;;;;;;17.43;82.05;99328.86;1713021;83;20176;-65
2021/08/05 02:58:04;;;;;;;;;;;;;;;17.49;81.98;99328.70;1705674;83;20140;-65
2021/08/05 03:00:30;;;;;;;;;;;;;;;17.55;81.93;99324.63;1729616;83;20184;-65
2021/08/05 03:02:56;;;;;;;;;;;;;;;17.58;81.70;99329.51;1714345;83;20139;-64
2021/08/05 03:05:23;;;;;;;;;;;;;;;17.55;81.56;99328.20;1702635;83;20163;-65
2021/08/05 03:07:49;;;;;;;;;;;;;;;17.49;81.52;99330.08;1706532;83;20144;-64
2021/08/05 03:10:16;;;;;;;;;;;;;;;17.45;81.66;99324.98;1727131;83;20145;-64
2021/08/05 03:12:43;;;;;;;;;;;;;;;17.41;81.85;99314.63;1728886;83;20116;-65
2021/08/05 03:15:12;;;;;;;;;;;;;;;17.42;82.09;99319.58;1725334;83;20164;-64
2021/08/05 03:17:38;;;;;;;;;;;;;;;17.47;82.17;99325.45;1700706;84;20140;-64
2021/08/05 03:20:05;;;;;;;;;;;;;;;17.50;82.20;99321.48;1700643;84;20163;-66
2021/08/05 03:22:32;;;;;;;;;;;;;;;17.55;82.28;99315.00;1704586;83;20131;-65
2021/08/05 03:24:58;;;;;;;;;;;;;;;17.60;82.37;99319.00;1720608;83;20482;-66
2021/08/05 03:27:24;;;;;;;;;;;;;;;17.69;82.61;99323.33;1702060;83;20235;-64
2021/08/05 03:29:50;;;;;;;;;;;;;;;17.80;82.68;99316.34;1727455;83;20196;-65
2021/08/05 03:32:16;;;;;;;;;;;;;;;17.92;82.66;99321.16;1689700;84;20111;-65
2021/08/05 03:34:43;;;;;;;;;;;;;;;18.04;82.66;99314.37;1711751;83;20151;-65
2021/08/05 03:37:10;;;;;;;;;;;;;;;18.16;82.60;99308.98;1707123;83;20125;-65
2021/08/05 03:39:37;;;;;;;;;;;;;;;18.29;82.49;99316.76;1723918;83;20142;-65
2021/08/05 03:42:03;;;;;;;;;;;;;;;18.31;82.26;99308.98;1696466;84;20143;-64
2021/08/05 03:44:30;;;;;;;;;;;;;;;18.37;82.26;99312.59;1688902;84;20352;-65
2021/08/05 03:46:56;;;;;;;;;;;;;;;18.53;82.04;99309.30;1724777;83;20144;-65
2021/08/05 03:49:24;;;;;;;;;;;;;;;18.65;81.75;99307.41;1710122;83;20168;-65
2021/08/05 03:51:50;;;;;;;;;;;;;;;18.77;81.55;99314.95;1717172;83;20148;-66
2021/08/05 03:54:16;;;;;;;;;;;;;;;18.87;81.31;99308.47;1697053;83;20445;-65
2021/08/05 03:56:43;;;;;;;;;;;;;;;18.98;81.01;99314.37;1714364;83;20124;-65
2021/08/05 03:59:09;;;;;;;;;;;;;;;19.01;80.68;99317.84;1705736;83;20134;-65
2021/08/05 04:01:35;;;;;;;;;;;;;;;19.05;80.37;99312.45;1697242;83;20163;-65
2021/08/05 04:04:01;;;;;;;;;;;;;;;19.13;79.89;99312.96;1711088;83;20134;-65
2021/08/05 04:06:28;;;;;;;;;;;;;;;19.22;79.29;99317.25;1695637;83;20162;-66
2021/08/05 04:08:54;;;;;;;;;;;;;;;19.28;78.85;99321.40;1696643;83;20197;-65
2021/08/05 04:11:21;;;;;;;;;;;;;;;19.34;78.57;99327.53;1695693;83;20150;-65
2021/08/05 04:13:47;;;;;;;;;;;;;;;19.35;78.30;99318.09;1715805;83;20422;-65
2021/08/05 04:16:13;;;;;;;;;;;;;;;19.30;78.13;99321.08;1719223;83;20179;-65
2021/08/05 04:18:40;;;;;;;;;;;;;;;19.26;78.11;99319.56;1699897;83;20460;-65
2021/08/05 04:21:06;;;;;;;;;;;;;;;19.29;77.85;99322.21;1698341;83;20178;-62
2021/08/05 04:23:33;;;;;;;;;;;;;;;19.35;77.71;99316.70;1703727;83;20206;-65
2021/08/05 04:26:00;;;;;;;;;;;;;;;19.41;77.54;99319.54;1703288;83;20163;-65
2021/08/05 04:28:27;;;;;;;;;;;;;;;19.48;77.51;99321.17;1719558;83;20158;-65
2021/08/05 04:30:53;;;;;;;;;;;;;;;19.54;77.50;99321.18;1711706;83;20167;-65
2021/08/05 04:33:20;;;;;;;;;;;;;;;19.59;77.53;99308.52;1721124;83;20453;-63
2021/08/05 04:35:47;;;;;;;;;;;;;;;19.66;77.39;99311.53;1721371;83;20156;-65
2021/08/05 04:38:14;;;;;;;;;;;;;;;19.82;77.03;99307.55;1704188;83;21009;-63
2021/08/05 04:40:41;;;;;;;;;;;;;;;19.99;76.86;99310.09;1705239;83;20140;-63
2021/08/05 04:43:07;;;;;;;;;;;;;;;20.14;76.39;99308.04;1703534;83;20512;-63
2021/08/05 04:45:33;;;;;;;;;;;;;;;20.26;75.74;99308.02;1698744;83;20793;-63
2021/08/05 04:48:01;;;;;;;;;;;;;;;20.34;75.39;99309.90;1715239;83;20160;-63
2021/08/05 04:50:31;;;;;;;;;;;;;;;20.46;75.11;99305.52;1706891;83;20138;-62
2021/08/05 04:52:59;;;;;;;;;;;;;;;20.58;74.21;99305.52;1711476;83;20160;-63
2021/08/05 04:55:27;;;;;;;;;;;;;;;20.69;73.62;99300.52;1712498;83;20160;-63
2021/08/05 04:57:57;;;;;;;;;;;;;;;20.87;73.47;99296.90;1716120;83;20183;-63
2021/08/05 05:00:35;;;;;;;;;;;;;;;21.01;72.57;99295.93;1704830;83;20134;-63
2021/08/05 05:03:02;;;;;;;;;;;;;;;21.03;72.32;99296.41;1701528;83;20135;-64
2021/08/05 05:05:29;;;;;;;;;;;;;;;21.05;72.29;99294.08;1696721;83;20123;-63
2021/08/05 05:07:55;;;;;;;;;;;;;;;21.11;72.41;99288.57;1708574;83;20457;-64
2021/08/05 05:10:21;;;;;;;;;;;;;;;21.18;72.32;99292.11;1708743;83;20135;-64
2021/08/05 05:12:49;;;;;;;;;;;;;;;21.27;72.20;99303.25;1700415;83;20135;-65
2021/08/05 05:15:16;;;;;;;;;;;;;;;21.38;71.56;99299.39;1707132;83;20187;-64
2021/08/05 05:17:43;;;;;;;;;;;;;;;21.46;71.64;99294.86;1718749;83;20132;-64
2021/08/05 05:20:10;;;;;;;;;;;;;;;21.55;71.46;99301.84;1722340;83;20132;-65
2021/08/05 05:22:36;;;;;;;;;;;;;;;21.59;71.31;99304.12;1711246;83;20167;-64
2021/08/05 05:25:04;;;;;;;;;;;;;;;21.55;70.83;99298.26;1720825;83;20454;-65
2021/08/05 05:27:30;;;;;;;;;;;;;;;21.49;71.10;99307.99;1713228;83;20156;-61
2021/08/05 05:29:59;;;;;;;;;;;;;;;21.47;71.27;99303.41;1721642;83;20176;-64
2021/08/05 05:32:26;;;;;;;;;;;;;;;21.56;71.37;99310.38;1715477;83;20216;-64
2021/08/05 05:34:53;;;;;;;;;;;;;;;21.66;71.31;99307.08;1693653;83;20142;-64
2021/08/05 05:37:21;;;;;;;;;;;;;;;21.75;70.85;99313.86;1693817;83;20166;-64
2021/08/05 05:39:49;;;;;;;;;;;;;;;21.76;70.73;99319.59;1699745;83;20144;-64
2021/08/05 05:42:16;;;;;;;;;;;;;;;21.78;71.05;99318.11;1704362;83;20125;-64
2021/08/05 05:44:42;;;;;;;;;;;;;;;21.84;70.78;99309.74;1693473;84;20441;-65
2021/08/05 05:47:08;;;;;;;;;;;;;;;21.95;70.52;99312.01;1693226;85;20138;-64
2021/08/05 05:49:34;;;;;;;;;;;;;;;22.08;70.32;99308.79;1694418;83;20182;-64
2021/08/05 05:52:01;;;;;;;;;;;;;;;22.19;69.82;99313.20;1697248;83;20158;-64
2021/08/05 05:54:27;;;;;;;;;;;;;;;22.21;69.02;99307.52;1693836;83;20461;-64
2021/08/05 05:56:54;;;;;;;;;;;;;;;22.18;68.82;99309.63;1705378;83;20168;-63
2021/08/05 05:59:20;;;;;;;;;;;;;;;22.21;68.92;99306.73;1719387;83;20124;-64
2021/08/05 06:01:46;;;;;;;;;;;;;;;22.36;68.49;99306.47;1699750;83;20492;-64
2021/08/05 06:04:12;;;;;;;;;;;;;;;22.41;68.18;99300.08;1693412;85;20167;-63
2021/08/05 06:06:38;;;;;;;;;;;;;;;22.48;68.38;99300.83;1701370;83;20136;-64
2021/08/05 06:09:04;;;;;;;;;;;;;;;22.58;67.96;99297.49;1720090;83;20155;-63
2021/08/05 06:11:31;;;;;;;;;;;;;;;22.72;67.96;99297.27;1707648;83;20150;-64
2021/08/05 06:13:58;;;;;;;;;;;;;;;22.90;67.30;99298.23;1712398;83;20152;-63
2021/08/05 06:16:24;;;;;;;;;;;;;;;23.10;66.89;99296.48;1695342;83;20176;-63
2021/08/05 06:18:51;;;;;;;;;;;;;;;23.33;65.84;99289.61;1698727;83;20138;-63
2021/08/05 06:21:19;;;;;;;;;;;;;;;23.43;65.33;99290.42;1701219;83;20134;-63
2021/08/05 06:23:45;;;;;;;;;;;;;;;23.56;65.06;99286.30;1704280;83;20189;-64
2021/08/05 06:26:11;;;;;;;;;;;;;;;23.78;64.83;99295.83;1711308;83;20507;-63
2021/08/05 06:28:38;;;;;;;;;;;;;;;24.05;64.54;99290.57;1721865;83;20124;-65
2021/08/05 06:31:04;;;;;;;;;;;;;;;24.33;62.63;99289.44;1703142;83;20210;-65
2021/08/05 06:33:31;;;;;;;;;;;;;;;24.52;61.31;99292.91;1693717;84;20452;-65
2021/08/05 06:35:58;;;;;;;;;;;;;;;24.67;60.97;99282.78;1693559;84;20135;-65
2021/08/05 06:38:24;;;;;;;;;;;;;;;24.80;60.84;99273.02;1693607;84;20421;-65
2021/08/05 06:40:50;;;;;;;;;;;;;;;25.11;59.47;99279.64;1694117;83;20206;-65
2021/08/05 06:43:16;;;;;;;;;;;;;;;25.32;59.25;99277.69;1698097;83;20124;-65
2021/08/05 06:45:43;;;;;;;;;;;;;;;25.44;59.16;99282.17;1722381;83;20485;-66
2021/08/05 06:48:09;;;;;;;;;;;;;;;25.45;58.59;99278.22;1722354;83;20140;-63
2021/08/05 06:50:35;;;;;;;;;;;;;;;25.26;58.63;99274.42;1698510;83;20162;-63
2021/08/05 06:53:02;;;;;;;;;;;;;;;25.31;59.68;99257.16;1693305;84;20147;-64
2021/08/05 06:55:28;;;;;;;;;;;;;;;25.66;59.61;99265.34;1670321;85;20162;-64
2021/08/05 06:57:54;;;;;;;;;;;;;;;26.02;58.16;99262.86;1693203;85;20147;-64
2021/08/05 07:00:20;;;;;;;;;;;;;;;26.37;56.76;99257.58;1709813;83;20159;-64
2021/08/05 07:02:47;;;;;;;;;;;;;;;26.51;56.38;99259.06;1722094;83;20144;-63
2021/08/05 07:05:13;;;;;;;;;;;;;;;26.82;55.70;99259.66;1722415;83;20152;-64
2021/08/05 07:07:39;;;;;;;;;;;;;;;27.18;54.78;99256.63;1722276;83;20130;-64
2021/08/05 07:10:06;;;;;;;;;;;;;;;27.42;54.41;99248.73;1694253;83;20174;-65
2021/08/05 07:12:32;;;;;;;;;;;;;;;27.68;53.16;99258.17;1693665;85;22020;-64
2021/08/05 07:14:59;;;;;;;;;;;;;;;27.82;51.14;99249.80;1693715;85;20126;-65
2021/08/05 07:17:27;;;;;;;;;;;;;;;27.84;51.08;99246.61;1693609;84;20231;-65
2021/08/05 07:19:53;;;;;;;;;;;;;;;27.92;51.75;99248.19;1694207;83;20146;-66
2021/08/05 07:22:19;;;;;;;;;;;;;;;28.00;50.61;99245.61;1708395;83;20148;-65
2021/08/05 07:24:46;;;;;;;;;;;;;;;27.94;49.83;99234.62;1722302;83;20152;-65
2021/08/05 07:27:13;;;;;;;;;;;;;;;27.87;50.55;99242.42;1722442;83;20728;-65
2021/08/05 07:29:39;;;;;;;;;;;;;;;28.00;50.99;99233.82;1720474;83;20167;-66
2021/08/05 07:32:06;;;;;;;;;;;;;;;28.16;50.95;99243.25;1718463;83;20195;-66
2021/08/05 07:34:34;;;;;;;;;;;;;;;28.31;51.10;99238.41;1693859;83;20441;-65
2021/08/05 07:37:01;;;;;;;;;;;;;;;28.44;50.14;99234.00;1693444;83;20119;-66
2021/08/05 07:39:27;;;;;;;;;;;;;;;28.42;49.16;99234.99;1693326;85;20429;-66
2021/08/05 07:41:53;;;;;;;;;;;;;;;28.30;50.45;99231.23;1693660;85;20460;-64
2021/08/05 07:44:20;;;;;;;;;;;;;;;28.41;49.24;99226.42;1693216;85;20138;-65
2021/08/05 07:46:47;;;;;;;;;;;;;;;28.40;48.68;99229.81;1701123;83;20196;-64
2021/08/05 07:49:15;;;;;;;;;;;;;;;28.44;48.70;99221.41;1719472;83;20164;-64
2021/08/05 07:51:42;;;;;;;;;;;;;;;28.49;48.55;99216.19;1687894;85;20539;-66
2021/08/05 07:54:08;;;;;;;;;;;;;;;28.62;48.40;99213.77;1687231;85;20450;-65
2021/08/05 07:56:35;;;;;;;;;;;;;;;28.86;48.95;99209.30;1706387;84;20167;-66
2021/08/05 07:59:01;;;;;;;;;;;;;;;29.08;46.85;99213.60;1715956;84;20156;-66
2021/08/05 08:01:28;;;;;;;;;;;;;;;29.12;46.86;99205.98;1715934;84;20573;-65
2021/08/05 08:03:54;;;;;;;;;;;;;;;29.05;45.50;99212.39;1715971;83;20128;-65
2021/08/05 08:06:21;;;;;;;;;;;;;;;28.88;46.44;99201.27;1715197;84;20141;-65
2021/08/05 08:08:48;;;;;;;;;;;;;;;28.89;47.02;99205.08;1709595;83;20143;-65
2021/08/05 08:11:22;;;;;;;;;;;;;;;28.94;46.87;99202.46;1687710;85;20432;-65
2021/08/05 08:13:45;;;;;;;;;;;;;;;28.96;46.56;99201.44;1686859;85;20266;-66
2021/08/05 08:16:11;;;;;;;;;;;;;;;29.02;46.94;99199.80;1709326;84;20183;-67
2021/08/05 08:18:38;;;;;;;;;;;;;;;29.04;47.27;99196.80;1715816;84;20132;-65
2021/08/05 08:21:04;;;;;;;;;;;;;;;28.94;46.44;99192.66;1716222;84;20160;-66
2021/08/05 08:23:30;;;;;;;;;;;;;;;28.84;47.71;99192.87;1715871;84;20502;-65
2021/08/05 08:25:56;;;;;;;;;;;;;;;28.86;48.11;99193.29;1715034;84;20365;-64
2021/08/05 08:28:23;;;;;;;;;;;;;;;28.84;47.91;99195.68;1715231;84;20157;-64
2021/08/05 08:30:49;;;;;;;;;;;;;;;28.72;48.52;99193.35;1698897;84;20174;-64
2021/08/05 08:33:15;;;;;;;;;;;;;;;28.77;48.93;99204.75;1687612;85;20500;-64
2021/08/05 08:35:41;;;;;;;;;;;;;;;28.90;48.71;99206.69;1696480;84;20192;-66
2021/08/05 08:38:08;;;;;;;;;;;;;;;29.00;48.81;99207.23;1715964;83;20165;-65
2021/08/05 08:40:34;;;;;;;;;;;;;;;29.09;48.98;99208.17;1701263;84;20187;-65
2021/08/05 08:43:01;;;;;;;;;;;;;;;29.19;48.51;99199.53;1688087;84;20152;-64
2021/08/05 08:45:27;;;;;;;;;;;;;;;29.22;47.92;99198.71;1687416;85;20738;-64
2021/08/05 08:47:54;;;;;;;;;;;;;;;29.09;47.43;99198.36;1687522;85;20182;-65
2021/08/05 08:50:32;;;;;;;;;;;;;;;29.14;49.43;99199.35;1687702;84;20144;-64
2021/08/05 08:53:02;;;;;;;;;;;;;;;29.34;47.70;99198.25;1690406;84;20437;-64
2021/08/05 08:55:28;;;;;;;;;;;;;;;29.22;47.15;99187.50;1712186;84;20132;-66
2021/08/05 08:57:57;;;;;;;;;;;;;;;29.00;48.03;99201.63;1716383;83;20148;-65
2021/08/05 09:03:07;;;;;;;;;;;;;;;29.17;48.57;99199.92;1795756;79;23005;-63
2021/08/05 09:05:33;;;;;;;;;;;;;;;29.11;48.23;99190.36;1755602;82;20130;-64
2021/08/05 09:08:01;;;;;;;7.25;4.60;;;;;;;29.01;48.29;99203.83;1752931;82;20150;-63
2021/08/05 09:10:28;;;;;;;6.45;4.62;;;;;;;28.85;48.23;99190.88;1752907;82;20995;-65
2021/08/05 09:12:56;;;;;;;6.30;4.90;;;;;;;28.78;47.89;99197.32;1752863;82;21110;-64
2021/08/05 09:15:45;;;;;;;6.47;5.03;;;;;;;28.84;49.03;99201.91;1753160;82;20995;-64
2021/08/05 09:18:38;;;;;;;8.40;5.30;;;;;;;28.94;48.14;99202.46;1724154;82;21627;-64
2021/08/05 09:21:21;;;;;;;9.80;5.72;;;;;;;28.99;48.25;99198.63;1722981;83;21015;-65
2021/08/05 09:24:13;;;;;;;10.20;6.12;;;;;;;28.93;48.07;99194.66;1723350;83;21594;-65
2021/08/05 09:26:42;;;;;;;7.70;5.35;;;;;;;28.93;48.50;99189.66;1722075;83;21038;-65
2021/08/05 09:29:15;;;;;;;7.20;5.22;;;;;;;28.92;48.80;99191.65;1749223;82;21037;-65
2021/08/05 09:31:55;;;;;;;8.75;5.28;;;;;;;29.05;48.87;99194.18;1753048;82;21478;-65
2021/08/05 09:34:36;;;;;;;6.62;5.12;;;;;;;29.16;48.54;99184.31;1697590;83;21022;-64
2021/08/05 09:37:09;;;;;;;7.42;5.62;;;;;;;29.31;48.67;99180.25;1723381;83;21085;-66
2021/08/05 09:39:37;;;;;;;10.23;5.35;;;;;;;29.31;47.95;99182.25;1725663;82;21023;-66
2021/08/05 09:42:09;;;;;;;6.55;5.08;;;;;;;29.38;47.68;99184.41;1744397;82;20998;-66
2021/08/05 09:44:43;;;;;;;9.25;5.50;;;;;;;29.47;47.65;99181.16;1756048;82;21045;-65
2021/08/05 09:47:19;;;;;;;7.75;5.58;;;;;;;29.59;46.59;99179.25;1754780;81;21073;-66
2021/08/05 09:49:51;;;;;;;9.33;5.30;;;;;;;29.63;46.26;99180.82;1753238;82;21011;-65
2021/08/05 09:52:33;;;;;;;6.35;5.10;;;;;;;29.63;46.60;99176.62;1752932;82;21003;-65
2021/08/05 09:55:07;;;;;;;7.95;5.72;;;;;;;29.76;48.07;99167.72;1752096;82;21054;-64
2021/08/05 09:57:41;;;;;;;6.72;5.40;;;;;;;29.89;47.89;99161.81;1750896;82;21110;-65
2021/08/05 10:00:16;;;;;;;7.72;5.37;;;;;;;29.87;46.48;99167.82;1752698;82;21067;-65
2021/08/05 10:02:51;;;;;;;9.13;5.45;;;;;;;29.78;46.62;99161.88;1753636;82;21039;-63
2021/08/05 10:05:21;;;;;;;7.55;5.30;;;;;;;29.57;46.22;99164.85;1754030;82;21498;-65
2021/08/05 10:07:50;;;;;;;5.83;4.90;;;;;;;29.42;46.89;99168.97;1723314;83;21078;-65
2021/08/05 10:10:22;;;;;;;13.68;5.42;;;;;;;29.31;47.29;99162.03;1723950;83;20995;-64
2021/08/05 10:12:59;;;;;;;8.30;5.60;;;;;;;29.25;47.37;99158.64;1723588;83;21078;-64
2021/08/05 10:15:27;;;;;;;9.65;5.15;;;;;;;29.16;46.70;99156.28;1723129;83;21027;-65
2021/08/05 10:17:59;;;;;;;8.23;5.30;;;;;;;29.14;47.65;99160.11;1750072;82;21126;-65
2021/08/05 10:20:27;;;;;;;7.92;5.35;;;;;;;29.19;47.51;99161.09;1752762;82;21003;-63
2021/08/05 10:22:58;;;;;;;7.65;5.83;;;;;;;29.32;48.21;99157.23;1753069;82;21083;-64
2021/08/05 10:25:25;;;;;;;8.03;5.42;;;;;;;29.57;48.38;99161.45;1753148;82;20979;-63
2021/08/05 10:27:53;;;;;;;6.40;5.10;;;;;;;29.78;46.71;99149.85;1752994;82;21569;-64
2021/08/05 10:30:20;;;;;;;6.35;4.80;;;;;;;29.75;46.51;99152.89;1751102;82;20983;-65
2021/08/05 10:32:47;;;;;;;6.53;5.47;;;;;;;29.68;46.50;99150.14;1753396;82;21035;-64
2021/08/05 10:35:14;;;;;;;7.78;5.45;;;;;;;29.62;47.51;99157.38;1753393;82;20967;-64
2021/08/05 10:37:41;;;;;;;7.45;4.92;;;;;;;29.59;46.85;99155.41;1753271;82;21039;-64
2021/08/05 10:40:10;;;;;;;8.05;5.22;;;;;;;29.60;46.87;99147.20;1752637;82;20971;-64
2021/08/05 10:42:37;;;;;;;5.97;4.85;;;;;;;29.72;46.77;99152.31;1752864;82;21007;-65
2021/08/05 10:45:04;;;;;;;6.35;4.90;;;;;;;29.81;46.47;99150.42;1753483;82;20983;-65
2021/08/05 10:47:31;;;;;;;7.72;4.87;;;;;;;29.86;45.39;99148.61;1753203;82;21018;-65
2021/08/05 10:50:01;;;;;;;6.78;4.70;;;;;;;29.93;45.27;99148.55;1752748;82;20959;-65
2021/08/05 10:52:40;;;;;;;7.55;4.90;;;;;;;30.02;45.00;99148.84;1753103;82;21002;-65
2021/08/05 10:55:28;;;;;;;5.55;4.85;;;;;;;30.03;44.93;99142.83;1753022;82;21031;-64
2021/08/05 10:58:13;;;;;;;7.12;4.80;;;;;;;29.99;45.66;99150.48;1751086;82;21070;-65
2021/08/05 11:00:58;;;;;;;9.58;4.97;;;;;;;29.91;45.28;99142.53;1753243;82;21055;-65
2021/08/05 11:03:40;;;;;;;7.25;4.80;;;;;;;29.75;44.71;99139.46;1740230;81;21533;-64
2021/08/05 11:06:07;;;;;;;6.40;4.75;;;;;;;29.58;45.25;99131.41;1739038;82;21522;-64
2021/08/05 11:08:34;;;;;;;6.17;4.33;;;;;;;29.54;45.59;99128.62;1739048;82;21618;-65
2021/08/05 11:11:24;;;;;;;6.60;4.53;;;;;;;29.65;45.43;99120.12;1733549;82;21012;-64
2021/08/05 11:14:02;;;;;;;6.78;4.42;;;;;;;29.76;45.54;99124.23;1709823;84;21107;-65
2021/08/05 11:17:01;;;;;;;5.83;4.33;;;;;;;29.83;45.23;99126.34;1712819;82;21558;-65
2021/08/05 11:19:33;;;;;;;9.15;4.92;;;;;;;29.95;44.58;99125.06;1729539;82;21056;-63
2021/08/05 11:22:31;;;;;;;6.67;4.40;;;;;;;29.91;44.50;99118.09;1719368;82;21059;-65
2021/08/05 11:24:58;;;;;;;6.37;4.33;;;;;;;29.95;44.82;99117.45;1711682;82;21541;-65
2021/08/05 11:27:24;;;;;;;5.97;4.50;;;;;;;30.07;44.24;99105.70;1712303;82;21766;-64
2021/08/05 11:29:51;;;;;;;7.47;4.65;;;;;;;30.11;44.67;99096.61;1734058;82;20976;-66
2021/08/05 11:32:29;;;;;;;5.92;4.58;;;;;;;30.24;44.56;99091.27;1722269;82;21110;-65
2021/08/05 11:35:06;;;;;;;5.10;4.28;;;;;;;30.29;43.16;99092.83;1709941;84;21027;-64
2021/08/05 11:37:34;;;;;;;5.97;4.17;;;;;;;30.29;43.92;99092.83;1706006;82;21038;-64
2021/08/05 11:40:04;;;;;;;5.08;3.37;;;;;;;30.37;43.96;99090.91;1710517;82;20976;-64
2021/08/05 11:42:30;;;;;;;4.80;3.27;;;;;;;30.46;41.71;99085.63;1719317;82;21550;-64
2021/08/05 11:45:03;;;;;;;5.90;3.40;;;;;;;30.63;42.02;99083.79;1739275;82;20988;-64
2021/08/05 11:47:39;;;;;;;5.25;3.70;;;;;;;30.84;41.45;99077.08;1715390;82;21489;-63
2021/08/05 11:50:15;;;;;;;5.17;3.50;;;;;;;30.97;40.06;99073.89;1709971;84;21512;-63
2021/08/05 11:52:45;;;;;;;4.55;3.83;;;;;;;30.94;41.30;99076.92;1709788;83;21087;-63
2021/08/05 11:55:25;;;;;;;6.83;4.20;;;;;;;30.85;41.66;99077.27;1711863;82;21019;-63
2021/08/05 11:57:59;;;;;;;8.50;4.95;;;;;;;30.54;42.32;99079.28;1709818;83;21090;-63
2021/08/05 12:00:31;;;;;;;4.90;3.90;;;;;;;30.14;42.00;99072.55;1709514;84;21083;-62
2021/08/05 12:03:14;;;;;;;5.33;4.00;;;;;;;29.87;42.13;99063.21;1718033;82;21039;-62
2021/08/05 12:05:44;;;;;;;6.37;4.15;;;;;;;29.73;43.06;99057.72;1736221;82;21040;-63
2021/08/05 12:08:11;;;;;;;4.92;3.65;;;;;;;29.78;42.89;99066.49;1746566;82;21082;-64
2021/08/05 12:10:42;;;;;;;6.70;3.60;;;;;;;29.90;43.07;99054.76;1723317;83;21038;-65
2021/08/05 12:13:18;;;;;;;5.50;3.70;;;;;;;30.03;42.53;99054.43;1725133;82;21074;-64
2021/08/05 12:15:55;;;;;;;4.92;3.65;;;;;;;30.06;42.55;99047.98;1736514;82;21026;-65
2021/08/05 12:18:23;;;;;;;6.05;3.95;;;;;;;30.05;42.32;99042.77;1676537;85;21075;-64
2021/08/05 12:20:56;;;;;;;5.60;3.90;;;;;;;30.07;42.85;99047.38;1736415;82;21014;-65
2021/08/05 12:23:28;;;;;;;6.28;4.28;;;;;;;30.18;43.50;99050.05;1640541;86;21103;-65
2021/08/05 12:26:04;;;;;;;4.37;3.70;;;;;;;30.27;42.60;99044.72;1726911;82;21031;-65
2021/08/05 12:28:37;;;;;;;5.97;4.05;;;;;;;30.41;42.88;99047.34;1739718;82;21059;-65
2021/08/05 12:31:07;;;;;;;6.25;4.20;;;;;;;30.50;42.80;99048.44;1753314;82;21015;-65
2021/08/05 12:33:43;;;;;;;6.17;4.37;;;;;;;30.58;42.17;99037.30;1747295;82;21003;-66
2021/08/05 12:36:14;;;;;;;5.72;4.42;;;;;;;30.61;43.45;99041.27;1750049;82;21010;-66